sensor_id;sensor_type;location;lat;lon;timestamp;P1;durP1;ratioP1;P2;durP2;ratioP2
84009;SDS011;74073;51.482;4.302;2024-02-21T00:01:42;3.58;;;0.50;;
84009;SDS011;74073;51.482;4.302;2024-02-21T00:04:08;3.00;;;0.40;;
84009;SDS011;74073;51.482;4.302;2024-02-21T00:06:34;3.78;;;0.35;;
84009;SDS011;74073;51.482;4.302;2024-02-21T00:09:00;1.85;;;0.20;;
84009;SDS011;74073;51.482;4.302;2024-02-21T00:11:26;2.50;;;0.80;;
84009;SDS011;74073;51.482;4.302;2024-02-21T00:13:52;1.80;;;0.28;;
84009;SDS011;74073;51.482;4.302;2024-02-21T00:16:18;2.42;;;0.20;;
84009;SDS011;74073;51.482;4.302;2024-02-21T00:18:44;2.50;;;0.63;;
84009;SDS011;74073;51.482;4.302;2024-02-21T00:21:10;3.58;;;0.20;;
84009;SDS011;74073;51.482;4.302;2024-02-21T00:23:43;2.42;;;0.20;;
84009;SDS011;74073;51.482;4.302;2024-02-21T00:26:11;1.77;;;0.32;;
84009;SDS011;74073;51.482;4.302;2024-02-21T00:28:37;2.53;;;0.10;;
84009;SDS011;74073;51.482;4.302;2024-02-21T00:31:04;1.60;;;0.25;;
84009;SDS011;74073;51.482;4.302;2024-02-21T00:33:30;3.17;;;0.28;;
84009;SDS011;74073;51.482;4.302;2024-02-21T00:35:56;2.03;;;0.40;;
84009;SDS011;74073;51.482;4.302;2024-02-21T00:38:22;0.93;;;0.10;;
84009;SDS011;74073;51.482;4.302;2024-02-21T00:40:48;1.77;;;0.10;;
84009;SDS011;74073;51.482;4.302;2024-02-21T00:43:14;2.85;;;0.20;;
84009;SDS011;74073;51.482;4.302;2024-02-21T00:45:40;2.50;;;0.25;;
84009;SDS011;74073;51.482;4.302;2024-02-21T00:48:07;1.77;;;0.20;;
84009;SDS011;74073;51.482;4.302;2024-02-21T00:50:33;4.22;;;0.20;;
84009;SDS011;74073;51.482;4.302;2024-02-21T00:52:59;3.00;;;0.30;;
84009;SDS011;74073;51.482;4.302;2024-02-21T00:55:24;1.88;;;0.20;;
84009;SDS011;74073;51.482;4.302;2024-02-21T00:57:51;2.28;;;0.10;;
84009;SDS011;74073;51.482;4.302;2024-02-21T01:00:17;3.28;;;0.20;;
84009;SDS011;74073;51.482;4.302;2024-02-21T01:02:43;2.08;;;0.20;;
84009;SDS011;74073;51.482;4.302;2024-02-21T01:05:09;1.88;;;0.15;;
84009;SDS011;74073;51.482;4.302;2024-02-21T01:07:35;3.50;;;0.32;;
84009;SDS011;74073;51.482;4.302;2024-02-21T01:10:01;2.35;;;0.30;;
84009;SDS011;74073;51.482;4.302;2024-02-21T01:12:27;2.28;;;0.20;;
84009;SDS011;74073;51.482;4.302;2024-02-21T01:14:53;1.77;;;0.30;;
84009;SDS011;74073;51.482;4.302;2024-02-21T01:17:19;2.28;;;0.10;;
84009;SDS011;74073;51.482;4.302;2024-02-21T01:19:46;3.10;;;0.52;;
84009;SDS011;74073;51.482;4.302;2024-02-21T01:22:12;1.95;;;0.10;;
84009;SDS011;74073;51.482;4.302;2024-02-21T01:24:39;2.60;;;0.10;;
84009;SDS011;74073;51.482;4.302;2024-02-21T01:27:05;2.45;;;0.10;;
84009;SDS011;74073;51.482;4.302;2024-02-21T01:29:31;2.97;;;0.20;;
84009;SDS011;74073;51.482;4.302;2024-02-21T01:31:57;2.38;;;0.20;;
84009;SDS011;74073;51.482;4.302;2024-02-21T01:34:23;1.77;;;0.15;;
84009;SDS011;74073;51.482;4.302;2024-02-21T01:36:49;1.85;;;0.10;;
84009;SDS011;74073;51.482;4.302;2024-02-21T01:39:15;2.17;;;0.20;;
84009;SDS011;74073;51.482;4.302;2024-02-21T01:41:41;1.30;;;0.10;;
84009;SDS011;74073;51.482;4.302;2024-02-21T01:44:07;2.63;;;0.43;;
84009;SDS011;74073;51.482;4.302;2024-02-21T01:46:33;2.33;;;0.22;;
84009;SDS011;74073;51.482;4.302;2024-02-21T01:49:00;1.90;;;0.10;;
84009;SDS011;74073;51.482;4.302;2024-02-21T01:51:26;2.25;;;0.45;;
84009;SDS011;74073;51.482;4.302;2024-02-21T01:53:53;1.98;;;0.10;;
84009;SDS011;74073;51.482;4.302;2024-02-21T01:56:21;2.28;;;0.45;;
84009;SDS011;74073;51.482;4.302;2024-02-21T01:58:48;2.75;;;0.10;;
84009;SDS011;74073;51.482;4.302;2024-02-21T02:01:14;2.22;;;0.10;;
84009;SDS011;74073;51.482;4.302;2024-02-21T02:03:40;2.03;;;0.25;;
84009;SDS011;74073;51.482;4.302;2024-02-21T02:06:06;2.13;;;0.95;;
84009;SDS011;74073;51.482;4.302;2024-02-21T02:08:32;3.60;;;0.25;;
84009;SDS011;74073;51.482;4.302;2024-02-21T02:10:58;2.60;;;0.68;;
84009;SDS011;74073;51.482;4.302;2024-02-21T02:13:25;6.90;;;0.73;;
84009;SDS011;74073;51.482;4.302;2024-02-21T02:15:51;1.20;;;0.17;;
84009;SDS011;74073;51.482;4.302;2024-02-21T02:18:17;1.85;;;0.13;;
84009;SDS011;74073;51.482;4.302;2024-02-21T02:20:44;2.08;;;0.10;;
84009;SDS011;74073;51.482;4.302;2024-02-21T02:23:23;1.55;;;0.20;;
84009;SDS011;74073;51.482;4.302;2024-02-21T02:25:49;2.20;;;0.20;;
84009;SDS011;74073;51.482;4.302;2024-02-21T02:28:19;0.85;;;0.10;;
84009;SDS011;74073;51.482;4.302;2024-02-21T02:30:45;2.75;;;0.15;;
84009;SDS011;74073;51.482;4.302;2024-02-21T02:33:11;1.80;;;0.20;;
84009;SDS011;74073;51.482;4.302;2024-02-21T02:35:37;2.05;;;0.30;;
84009;SDS011;74073;51.482;4.302;2024-02-21T02:38:03;2.85;;;0.20;;
84009;SDS011;74073;51.482;4.302;2024-02-21T02:40:33;3.10;;;0.15;;
84009;SDS011;74073;51.482;4.302;2024-02-21T02:42:59;2.67;;;0.38;;
84009;SDS011;74073;51.482;4.302;2024-02-21T02:45:25;1.95;;;0.30;;
84009;SDS011;74073;51.482;4.302;2024-02-21T02:47:54;1.17;;;0.20;;
84009;SDS011;74073;51.482;4.302;2024-02-21T02:50:21;0.80;;;0.10;;
84009;SDS011;74073;51.482;4.302;2024-02-21T02:52:47;2.08;;;0.45;;
84009;SDS011;74073;51.482;4.302;2024-02-21T02:55:14;1.52;;;0.20;;
84009;SDS011;74073;51.482;4.302;2024-02-21T02:57:40;0.82;;;0.20;;
84009;SDS011;74073;51.482;4.302;2024-02-21T03:00:10;0.80;;;0.10;;
84009;SDS011;74073;51.482;4.302;2024-02-21T03:02:37;1.25;;;0.20;;
84009;SDS011;74073;51.482;4.302;2024-02-21T03:05:03;2.25;;;0.10;;
84009;SDS011;74073;51.482;4.302;2024-02-21T03:07:36;1.42;;;0.32;;
84009;SDS011;74073;51.482;4.302;2024-02-21T03:10:03;1.85;;;0.10;;
84009;SDS011;74073;51.482;4.302;2024-02-21T03:12:29;1.30;;;0.28;;
84009;SDS011;74073;51.482;4.302;2024-02-21T03:14:55;1.80;;;0.45;;
84009;SDS011;74073;51.482;4.302;2024-02-21T03:17:21;1.30;;;0.30;;
84009;SDS011;74073;51.482;4.302;2024-02-21T03:19:47;1.23;;;0.10;;
84009;SDS011;74073;51.482;4.302;2024-02-21T03:22:14;1.40;;;0.20;;
84009;SDS011;74073;51.482;4.302;2024-02-21T03:24:41;1.73;;;0.40;;
84009;SDS011;74073;51.482;4.302;2024-02-21T03:27:07;1.63;;;0.65;;
84009;SDS011;74073;51.482;4.302;2024-02-21T03:29:33;2.55;;;0.25;;
84009;SDS011;74073;51.482;4.302;2024-02-21T03:31:59;1.70;;;0.10;;
84009;SDS011;74073;51.482;4.302;2024-02-21T03:34:25;2.55;;;0.45;;
84009;SDS011;74073;51.482;4.302;2024-02-21T03:36:51;1.17;;;0.10;;
84009;SDS011;74073;51.482;4.302;2024-02-21T03:39:17;1.50;;;0.10;;
84009;SDS011;74073;51.482;4.302;2024-02-21T03:41:43;2.17;;;0.30;;
84009;SDS011;74073;51.482;4.302;2024-02-21T03:44:09;1.35;;;0.10;;
84009;SDS011;74073;51.482;4.302;2024-02-21T03:46:35;1.20;;;0.15;;
84009;SDS011;74073;51.482;4.302;2024-02-21T03:49:01;1.33;;;0.20;;
84009;SDS011;74073;51.482;4.302;2024-02-21T03:51:27;1.27;;;0.10;;
84009;SDS011;74073;51.482;4.302;2024-02-21T03:53:53;2.05;;;0.25;;
84009;SDS011;74073;51.482;4.302;2024-02-21T03:56:19;2.38;;;0.10;;
84009;SDS011;74073;51.482;4.302;2024-02-21T03:58:45;1.65;;;0.20;;
84009;SDS011;74073;51.482;4.302;2024-02-21T04:01:11;2.03;;;0.30;;
84009;SDS011;74073;51.482;4.302;2024-02-21T04:03:38;1.45;;;0.20;;
84009;SDS011;74073;51.482;4.302;2024-02-21T04:06:04;1.52;;;0.20;;
84009;SDS011;74073;51.482;4.302;2024-02-21T04:08:30;2.15;;;0.20;;
84009;SDS011;74073;51.482;4.302;2024-02-21T04:10:56;2.33;;;0.40;;
84009;SDS011;74073;51.482;4.302;2024-02-21T04:13:22;2.85;;;0.43;;
84009;SDS011;74073;51.482;4.302;2024-02-21T04:15:48;2.80;;;0.20;;
84009;SDS011;74073;51.482;4.302;2024-02-21T04:18:14;2.78;;;0.10;;
84009;SDS011;74073;51.482;4.302;2024-02-21T04:20:40;1.70;;;0.20;;
84009;SDS011;74073;51.482;4.302;2024-02-21T04:23:06;1.67;;;0.20;;
84009;SDS011;74073;51.482;4.302;2024-02-21T04:25:32;1.45;;;0.10;;
84009;SDS011;74073;51.482;4.302;2024-02-21T04:27:58;1.13;;;0.13;;
84009;SDS011;74073;51.482;4.302;2024-02-21T04:30:24;1.40;;;0.45;;
84009;SDS011;74073;51.482;4.302;2024-02-21T04:32:50;1.67;;;0.30;;
84009;SDS011;74073;51.482;4.302;2024-02-21T04:35:16;4.45;;;0.47;;
84009;SDS011;74073;51.482;4.302;2024-02-21T04:37:42;2.33;;;0.20;;
84009;SDS011;74073;51.482;4.302;2024-02-21T04:40:08;1.38;;;0.20;;
84009;SDS011;74073;51.482;4.302;2024-02-21T04:42:34;2.17;;;0.20;;
84009;SDS011;74073;51.482;4.302;2024-02-21T04:45:00;1.67;;;0.20;;
84009;SDS011;74073;51.482;4.302;2024-02-21T04:47:27;3.05;;;0.32;;
84009;SDS011;74073;51.482;4.302;2024-02-21T04:49:53;1.45;;;0.10;;
84009;SDS011;74073;51.482;4.302;2024-02-21T04:52:19;3.55;;;0.20;;
84009;SDS011;74073;51.482;4.302;2024-02-21T04:54:45;3.50;;;0.22;;
84009;SDS011;74073;51.482;4.302;2024-02-21T04:57:11;1.10;;;0.10;;
84009;SDS011;74073;51.482;4.302;2024-02-21T04:59:41;2.00;;;0.40;;
84009;SDS011;74073;51.482;4.302;2024-02-21T05:02:07;2.00;;;0.60;;
84009;SDS011;74073;51.482;4.302;2024-02-21T05:04:33;2.45;;;0.10;;
84009;SDS011;74073;51.482;4.302;2024-02-21T05:09:28;1.60;;;0.10;;
84009;SDS011;74073;51.482;4.302;2024-02-21T05:11:53;2.20;;;0.20;;
84009;SDS011;74073;51.482;4.302;2024-02-21T05:14:19;2.22;;;0.10;;
84009;SDS011;74073;51.482;4.302;2024-02-21T05:16:45;2.05;;;0.20;;
84009;SDS011;74073;51.482;4.302;2024-02-21T05:19:11;4.63;;;0.45;;
84009;SDS011;74073;51.482;4.302;2024-02-21T05:21:37;2.60;;;0.35;;
84009;SDS011;74073;51.482;4.302;2024-02-21T05:24:04;2.63;;;0.20;;
84009;SDS011;74073;51.482;4.302;2024-02-21T05:26:30;2.03;;;0.22;;
84009;SDS011;74073;51.482;4.302;2024-02-21T05:28:56;3.97;;;0.22;;
84009;SDS011;74073;51.482;4.302;2024-02-21T05:31:22;2.15;;;0.20;;
84009;SDS011;74073;51.482;4.302;2024-02-21T05:33:48;2.78;;;0.20;;
84009;SDS011;74073;51.482;4.302;2024-02-21T05:36:14;2.45;;;0.60;;
84009;SDS011;74073;51.482;4.302;2024-02-21T05:38:40;2.90;;;0.30;;
84009;SDS011;74073;51.482;4.302;2024-02-21T05:41:06;2.50;;;0.22;;
84009;SDS011;74073;51.482;4.302;2024-02-21T05:43:32;2.10;;;0.10;;
84009;SDS011;74073;51.482;4.302;2024-02-21T05:45:58;2.20;;;0.22;;
84009;SDS011;74073;51.482;4.302;2024-02-21T05:48:24;3.67;;;0.32;;
84009;SDS011;74073;51.482;4.302;2024-02-21T05:50:50;2.97;;;0.85;;
84009;SDS011;74073;51.482;4.302;2024-02-21T05:53:16;1.95;;;0.38;;
84009;SDS011;74073;51.482;4.302;2024-02-21T05:55:42;2.53;;;0.30;;
84009;SDS011;74073;51.482;4.302;2024-02-21T05:58:09;2.20;;;0.32;;
84009;SDS011;74073;51.482;4.302;2024-02-21T06:00:38;2.63;;;0.30;;
84009;SDS011;74073;51.482;4.302;2024-02-21T06:03:04;2.13;;;0.30;;
84009;SDS011;74073;51.482;4.302;2024-02-21T06:05:31;2.67;;;0.45;;
84009;SDS011;74073;51.482;4.302;2024-02-21T06:07:57;3.33;;;0.45;;
84009;SDS011;74073;51.482;4.302;2024-02-21T06:10:23;3.85;;;0.73;;
84009;SDS011;74073;51.482;4.302;2024-02-21T06:12:49;4.10;;;0.93;;
84009;SDS011;74073;51.482;4.302;2024-02-21T06:15:15;3.22;;;0.43;;
84009;SDS011;74073;51.482;4.302;2024-02-21T06:17:41;3.55;;;0.25;;
84009;SDS011;74073;51.482;4.302;2024-02-21T06:20:07;2.13;;;0.20;;
84009;SDS011;74073;51.482;4.302;2024-02-21T06:22:33;2.42;;;0.22;;
84009;SDS011;74073;51.482;4.302;2024-02-21T06:24:59;2.08;;;0.30;;
84009;SDS011;74073;51.482;4.302;2024-02-21T06:27:26;2.88;;;0.45;;
84009;SDS011;74073;51.482;4.302;2024-02-21T06:29:52;1.80;;;0.30;;
84009;SDS011;74073;51.482;4.302;2024-02-21T06:32:18;2.63;;;0.30;;
84009;SDS011;74073;51.482;4.302;2024-02-21T06:34:44;2.10;;;0.20;;
84009;SDS011;74073;51.482;4.302;2024-02-21T06:37:10;2.03;;;0.32;;
84009;SDS011;74073;51.482;4.302;2024-02-21T06:39:37;3.58;;;0.40;;
84009;SDS011;74073;51.482;4.302;2024-02-21T06:42:03;4.22;;;0.40;;
84009;SDS011;74073;51.482;4.302;2024-02-21T06:44:29;8.82;;;2.17;;
84009;SDS011;74073;51.482;4.302;2024-02-21T06:46:57;8.15;;;2.17;;
84009;SDS011;74073;51.482;4.302;2024-02-21T06:49:24;7.60;;;1.45;;
84009;SDS011;74073;51.482;4.302;2024-02-21T06:51:50;4.78;;;0.93;;
84009;SDS011;74073;51.482;4.302;2024-02-21T06:54:16;5.65;;;1.27;;
84009;SDS011;74073;51.482;4.302;2024-02-21T06:56:45;4.03;;;0.80;;
84009;SDS011;74073;51.482;4.302;2024-02-21T06:59:11;4.50;;;0.68;;
84009;SDS011;74073;51.482;4.302;2024-02-21T07:01:44;8.07;;;0.80;;
84009;SDS011;74073;51.482;4.302;2024-02-21T07:04:10;4.90;;;0.63;;
84009;SDS011;74073;51.482;4.302;2024-02-21T07:06:36;3.28;;;0.73;;
84009;SDS011;74073;51.482;4.302;2024-02-21T07:09:02;6.07;;;0.57;;
84009;SDS011;74073;51.482;4.302;2024-02-21T07:11:28;3.55;;;0.63;;
84009;SDS011;74073;51.482;4.302;2024-02-21T07:13:54;4.35;;;1.05;;
84009;SDS011;74073;51.482;4.302;2024-02-21T07:16:20;4.18;;;0.65;;
84009;SDS011;74073;51.482;4.302;2024-02-21T07:18:46;4.75;;;0.85;;
84009;SDS011;74073;51.482;4.302;2024-02-21T07:21:12;8.02;;;0.68;;
84009;SDS011;74073;51.482;4.302;2024-02-21T07:23:40;5.10;;;0.52;;
84009;SDS011;74073;51.482;4.302;2024-02-21T07:26:07;7.63;;;0.73;;
84009;SDS011;74073;51.482;4.302;2024-02-21T07:28:33;3.60;;;0.80;;
84009;SDS011;74073;51.482;4.302;2024-02-21T07:30:59;6.43;;;0.68;;
84009;SDS011;74073;51.482;4.302;2024-02-21T07:33:25;3.67;;;0.63;;
84009;SDS011;74073;51.482;4.302;2024-02-21T07:35:51;4.07;;;0.63;;
84009;SDS011;74073;51.482;4.302;2024-02-21T07:38:17;5.22;;;0.90;;
84009;SDS011;74073;51.482;4.302;2024-02-21T07:40:45;7.93;;;0.63;;
84009;SDS011;74073;51.482;4.302;2024-02-21T07:43:11;2.67;;;0.40;;
84009;SDS011;74073;51.482;4.302;2024-02-21T07:45:37;3.50;;;0.60;;
84009;SDS011;74073;51.482;4.302;2024-02-21T07:48:04;5.45;;;0.80;;
84009;SDS011;74073;51.482;4.302;2024-02-21T07:50:30;4.68;;;0.85;;
84009;SDS011;74073;51.482;4.302;2024-02-21T07:52:57;4.43;;;0.70;;
84009;SDS011;74073;51.482;4.302;2024-02-21T07:55:23;4.45;;;1.27;;
84009;SDS011;74073;51.482;4.302;2024-02-21T07:57:49;5.35;;;1.33;;
84009;SDS011;74073;51.482;4.302;2024-02-21T08:00:15;5.75;;;0.90;;
84009;SDS011;74073;51.482;4.302;2024-02-21T08:02:48;3.42;;;0.40;;
84009;SDS011;74073;51.482;4.302;2024-02-21T08:05:14;5.45;;;0.93;;
84009;SDS011;74073;51.482;4.302;2024-02-21T08:07:40;6.43;;;0.70;;
84009;SDS011;74073;51.482;4.302;2024-02-21T08:10:07;6.07;;;0.95;;
84009;SDS011;74073;51.482;4.302;2024-02-21T08:12:33;3.67;;;1.10;;
84009;SDS011;74073;51.482;4.302;2024-02-21T08:14:59;4.90;;;1.27;;
84009;SDS011;74073;51.482;4.302;2024-02-21T08:17:25;5.22;;;0.60;;
84009;SDS011;74073;51.482;4.302;2024-02-21T08:19:51;4.05;;;1.20;;
84009;SDS011;74073;51.482;4.302;2024-02-21T08:22:17;4.53;;;0.80;;
84009;SDS011;74073;51.482;4.302;2024-02-21T08:24:43;4.85;;;0.93;;
84009;SDS011;74073;51.482;4.302;2024-02-21T08:27:09;5.13;;;0.88;;
84009;SDS011;74073;51.482;4.302;2024-02-21T08:29:35;4.07;;;0.95;;
84009;SDS011;74073;51.482;4.302;2024-02-21T08:32:02;4.00;;;1.45;;
84009;SDS011;74073;51.482;4.302;2024-02-21T08:34:28;5.00;;;0.95;;
84009;SDS011;74073;51.482;4.302;2024-02-21T08:36:55;4.57;;;0.80;;
84009;SDS011;74073;51.482;4.302;2024-02-21T08:39:21;3.83;;;0.93;;
84009;SDS011;74073;51.482;4.302;2024-02-21T08:41:47;43.78;;;15.02;;
84009;SDS011;74073;51.482;4.302;2024-02-21T08:44:13;27.77;;;10.95;;
84009;SDS011;74073;51.482;4.302;2024-02-21T08:46:39;18.85;;;6.82;;
84009;SDS011;74073;51.482;4.302;2024-02-21T08:49:06;15.95;;;5.40;;
84009;SDS011;74073;51.482;4.302;2024-02-21T08:51:32;11.73;;;4.40;;
84009;SDS011;74073;51.482;4.302;2024-02-21T08:53:58;13.23;;;4.68;;
84009;SDS011;74073;51.482;4.302;2024-02-21T08:56:25;12.48;;;3.97;;
84009;SDS011;74073;51.482;4.302;2024-02-21T08:58:51;9.80;;;3.55;;
84009;SDS011;74073;51.482;4.302;2024-02-21T09:01:17;12.88;;;3.65;;
84009;SDS011;74073;51.482;4.302;2024-02-21T09:03:43;10.75;;;3.08;;
84009;SDS011;74073;51.482;4.302;2024-02-21T09:06:11;10.75;;;2.95;;
84009;SDS011;74073;51.482;4.302;2024-02-21T09:08:39;11.07;;;3.65;;
84009;SDS011;74073;51.482;4.302;2024-02-21T09:11:05;9.90;;;2.90;;
84009;SDS011;74073;51.482;4.302;2024-02-21T09:13:32;10.68;;;2.83;;
84009;SDS011;74073;51.482;4.302;2024-02-21T09:15:58;8.55;;;2.45;;
84009;SDS011;74073;51.482;4.302;2024-02-21T09:18:24;18.88;;;7.35;;
84009;SDS011;74073;51.482;4.302;2024-02-21T09:20:50;21.75;;;8.45;;
84009;SDS011;74073;51.482;4.302;2024-02-21T09:23:16;15.32;;;7.25;;
84009;SDS011;74073;51.482;4.302;2024-02-21T09:25:42;12.65;;;4.97;;
84009;SDS011;74073;51.482;4.302;2024-02-21T09:28:08;11.30;;;4.90;;
84009;SDS011;74073;51.482;4.302;2024-02-21T09:30:35;14.18;;;5.10;;
84009;SDS011;74073;51.482;4.302;2024-02-21T09:33:02;10.13;;;3.47;;
84009;SDS011;74073;51.482;4.302;2024-02-21T09:35:30;10.95;;;4.72;;
84009;SDS011;74073;51.482;4.302;2024-02-21T09:37:58;10.90;;;4.38;;
84009;SDS011;74073;51.482;4.302;2024-02-21T09:40:24;9.02;;;3.40;;
84009;SDS011;74073;51.482;4.302;2024-02-21T09:42:53;10.05;;;3.85;;
84009;SDS011;74073;51.482;4.302;2024-02-21T09:45:23;10.80;;;3.20;;
84009;SDS011;74073;51.482;4.302;2024-02-21T09:50:18;12.23;;;4.05;;
84009;SDS011;74073;51.482;4.302;2024-02-21T09:52:46;8.95;;;3.17;;
84009;SDS011;74073;51.482;4.302;2024-02-21T09:55:12;8.98;;;3.00;;
84009;SDS011;74073;51.482;4.302;2024-02-21T09:57:39;12.57;;;2.90;;
84009;SDS011;74073;51.482;4.302;2024-02-21T10:00:06;10.25;;;2.85;;
84009;SDS011;74073;51.482;4.302;2024-02-21T10:02:33;10.80;;;3.03;;
84009;SDS011;74073;51.482;4.302;2024-02-21T10:04:59;8.93;;;2.25;;
84009;SDS011;74073;51.482;4.302;2024-02-21T10:07:25;6.97;;;2.75;;
84009;SDS011;74073;51.482;4.302;2024-02-21T10:10:01;7.55;;;2.92;;
84009;SDS011;74073;51.482;4.302;2024-02-21T10:12:27;7.45;;;2.28;;
84009;SDS011;74073;51.482;4.302;2024-02-21T10:15:03;17.73;;;2.85;;
84009;SDS011;74073;51.482;4.302;2024-02-21T10:17:29;7.00;;;2.35;;
84009;SDS011;74073;51.482;4.302;2024-02-21T10:19:55;6.53;;;2.22;;
84009;SDS011;74073;51.482;4.302;2024-02-21T10:22:21;5.10;;;1.52;;
84009;SDS011;74073;51.482;4.302;2024-02-21T10:24:48;9.20;;;1.95;;
84009;SDS011;74073;51.482;4.302;2024-02-21T10:27:14;7.00;;;1.58;;
84009;SDS011;74073;51.482;4.302;2024-02-21T10:29:40;7.05;;;2.13;;
84009;SDS011;74073;51.482;4.302;2024-02-21T10:32:07;6.00;;;1.98;;
84009;SDS011;74073;51.482;4.302;2024-02-21T10:34:33;8.15;;;2.00;;
84009;SDS011;74073;51.482;4.302;2024-02-21T10:37:03;7.97;;;1.95;;
84009;SDS011;74073;51.482;4.302;2024-02-21T10:39:30;4.95;;;1.88;;
84009;SDS011;74073;51.482;4.302;2024-02-21T10:41:57;4.95;;;1.52;;
84009;SDS011;74073;51.482;4.302;2024-02-21T10:44:24;5.00;;;2.00;;
84009;SDS011;74073;51.482;4.302;2024-02-21T10:46:51;6.32;;;1.52;;
84009;SDS011;74073;51.482;4.302;2024-02-21T10:49:21;5.80;;;1.58;;
84009;SDS011;74073;51.482;4.302;2024-02-21T10:51:54;8.85;;;1.55;;
84009;SDS011;74073;51.482;4.302;2024-02-21T10:54:27;7.78;;;1.27;;
84009;SDS011;74073;51.482;4.302;2024-02-21T10:56:55;5.32;;;1.33;;
84009;SDS011;74073;51.482;4.302;2024-02-21T10:59:22;3.95;;;1.05;;
84009;SDS011;74073;51.482;4.302;2024-02-21T11:01:48;5.40;;;1.58;;
84009;SDS011;74073;51.482;4.302;2024-02-21T11:04:14;6.45;;;1.35;;
84009;SDS011;74073;51.482;4.302;2024-02-21T11:06:41;5.07;;;1.10;;
84009;SDS011;74073;51.482;4.302;2024-02-21T11:09:08;3.47;;;0.68;;
84009;SDS011;74073;51.482;4.302;2024-02-21T11:11:37;6.32;;;1.90;;
84009;SDS011;74073;51.482;4.302;2024-02-21T11:14:11;5.57;;;0.98;;
84009;SDS011;74073;51.482;4.302;2024-02-21T11:16:39;4.50;;;1.15;;
84009;SDS011;74073;51.482;4.302;2024-02-21T11:19:06;4.45;;;1.00;;
84009;SDS011;74073;51.482;4.302;2024-02-21T11:21:33;5.25;;;1.27;;
84009;SDS011;74073;51.482;4.302;2024-02-21T11:24:00;4.60;;;0.98;;
84009;SDS011;74073;51.482;4.302;2024-02-21T11:26:27;8.77;;;1.20;;
84009;SDS011;74073;51.482;4.302;2024-02-21T11:29:00;6.70;;;1.40;;
84009;SDS011;74073;51.482;4.302;2024-02-21T11:31:27;4.97;;;1.17;;
84009;SDS011;74073;51.482;4.302;2024-02-21T11:34:04;5.78;;;1.13;;
84009;SDS011;74073;51.482;4.302;2024-02-21T11:36:30;5.38;;;1.33;;
84009;SDS011;74073;51.482;4.302;2024-02-21T11:39:02;5.45;;;1.10;;
84009;SDS011;74073;51.482;4.302;2024-02-21T11:41:29;5.57;;;1.02;;
84009;SDS011;74073;51.482;4.302;2024-02-21T11:43:55;4.82;;;0.75;;
84009;SDS011;74073;51.482;4.302;2024-02-21T11:46:21;5.47;;;1.02;;
84009;SDS011;74073;51.482;4.302;2024-02-21T11:48:49;3.97;;;0.63;;
84009;SDS011;74073;51.482;4.302;2024-02-21T11:51:21;6.30;;;1.10;;
84009;SDS011;74073;51.482;4.302;2024-02-21T11:53:48;3.67;;;0.95;;
84009;SDS011;74073;51.482;4.302;2024-02-21T11:56:14;4.70;;;0.88;;
84009;SDS011;74073;51.482;4.302;2024-02-21T11:58:40;3.45;;;0.63;;
84009;SDS011;74073;51.482;4.302;2024-02-21T12:01:07;6.63;;;0.75;;
84009;SDS011;74073;51.482;4.302;2024-02-21T12:03:33;4.30;;;0.93;;
84009;SDS011;74073;51.482;4.302;2024-02-21T12:06:03;3.45;;;0.63;;
84009;SDS011;74073;51.482;4.302;2024-02-21T12:08:42;4.50;;;1.33;;
84009;SDS011;74073;51.482;4.302;2024-02-21T12:11:18;3.75;;;0.80;;
84009;SDS011;74073;51.482;4.302;2024-02-21T12:13:45;3.67;;;0.65;;
84009;SDS011;74073;51.482;4.302;2024-02-21T12:16:12;3.65;;;0.50;;
84009;SDS011;74073;51.482;4.302;2024-02-21T12:18:41;3.85;;;0.70;;
84009;SDS011;74073;51.482;4.302;2024-02-21T12:21:07;3.85;;;0.52;;
84009;SDS011;74073;51.482;4.302;2024-02-21T12:23:33;3.55;;;0.70;;
84009;SDS011;74073;51.482;4.302;2024-02-21T12:25:59;5.28;;;0.50;;
84009;SDS011;74073;51.482;4.302;2024-02-21T12:28:25;2.35;;;0.50;;
84009;SDS011;74073;51.482;4.302;2024-02-21T12:30:51;3.10;;;0.60;;
84009;SDS011;74073;51.482;4.302;2024-02-21T12:33:17;4.43;;;0.95;;
84009;SDS011;74073;51.482;4.302;2024-02-21T12:35:43;3.08;;;0.55;;
84009;SDS011;74073;51.482;4.302;2024-02-21T12:38:09;2.53;;;0.50;;
84009;SDS011;74073;51.482;4.302;2024-02-21T12:40:36;3.78;;;0.43;;
84009;SDS011;74073;51.482;4.302;2024-02-21T12:43:02;5.15;;;0.60;;
84009;SDS011;74073;51.482;4.302;2024-02-21T12:45:28;4.78;;;0.43;;
84009;SDS011;74073;51.482;4.302;2024-02-21T12:47:54;4.13;;;0.73;;
84009;SDS011;74073;51.482;4.302;2024-02-21T12:50:20;3.92;;;0.63;;
84009;SDS011;74073;51.482;4.302;2024-02-21T12:52:47;3.95;;;0.47;;
84009;SDS011;74073;51.482;4.302;2024-02-21T12:55:14;3.63;;;0.55;;
84009;SDS011;74073;51.482;4.302;2024-02-21T12:57:41;3.10;;;0.57;;
84009;SDS011;74073;51.482;4.302;2024-02-21T13:00:08;4.35;;;0.40;;
84009;SDS011;74073;51.482;4.302;2024-02-21T13:02:37;4.15;;;0.40;;
84009;SDS011;74073;51.482;4.302;2024-02-21T13:05:03;3.83;;;0.43;;
84009;SDS011;74073;51.482;4.302;2024-02-21T13:07:30;3.08;;;0.70;;
84009;SDS011;74073;51.482;4.302;2024-02-21T13:09:57;3.25;;;0.28;;
84009;SDS011;74073;51.482;4.302;2024-02-21T13:12:23;2.45;;;0.40;;
84009;SDS011;74073;51.482;4.302;2024-02-21T13:14:51;4.05;;;0.50;;
84009;SDS011;74073;51.482;4.302;2024-02-21T13:17:17;4.15;;;0.47;;
84009;SDS011;74073;51.482;4.302;2024-02-21T13:19:43;5.22;;;0.63;;
84009;SDS011;74073;51.482;4.302;2024-02-21T13:22:09;3.88;;;0.60;;
84009;SDS011;74073;51.482;4.302;2024-02-21T13:24:36;6.85;;;0.73;;
84009;SDS011;74073;51.482;4.302;2024-02-21T13:27:02;3.80;;;1.20;;
84009;SDS011;74073;51.482;4.302;2024-02-21T13:29:28;3.63;;;0.57;;
84009;SDS011;74073;51.482;4.302;2024-02-21T13:31:54;7.25;;;0.63;;
84009;SDS011;74073;51.482;4.302;2024-02-21T13:34:20;3.92;;;0.60;;
84009;SDS011;74073;51.482;4.302;2024-02-21T13:36:46;4.78;;;0.50;;
84009;SDS011;74073;51.482;4.302;2024-02-21T13:39:12;4.25;;;0.50;;
84009;SDS011;74073;51.482;4.302;2024-02-21T13:41:41;4.85;;;0.80;;
84009;SDS011;74073;51.482;4.302;2024-02-21T13:44:07;3.83;;;0.55;;
84009;SDS011;74073;51.482;4.302;2024-02-21T13:46:34;8.50;;;1.45;;
84009;SDS011;74073;51.482;4.302;2024-02-21T13:49:04;4.82;;;0.50;;
84009;SDS011;74073;51.482;4.302;2024-02-21T13:51:31;4.72;;;0.90;;
84009;SDS011;74073;51.482;4.302;2024-02-21T13:53:57;5.32;;;0.70;;
84009;SDS011;74073;51.482;4.302;2024-02-21T13:56:24;3.72;;;0.60;;
84009;SDS011;74073;51.482;4.302;2024-02-21T13:58:50;3.42;;;0.60;;
84009;SDS011;74073;51.482;4.302;2024-02-21T14:01:16;3.65;;;0.50;;
84009;SDS011;74073;51.482;4.302;2024-02-21T14:03:43;2.80;;;0.52;;
84009;SDS011;74073;51.482;4.302;2024-02-21T14:06:09;4.35;;;0.55;;
84009;SDS011;74073;51.482;4.302;2024-02-21T14:08:35;2.63;;;0.50;;
84009;SDS011;74073;51.482;4.302;2024-02-21T14:11:02;5.30;;;0.57;;
84009;SDS011;74073;51.482;4.302;2024-02-21T14:13:28;4.05;;;0.60;;
84009;SDS011;74073;51.482;4.302;2024-02-21T14:15:55;6.35;;;0.98;;
84009;SDS011;74073;51.482;4.302;2024-02-21T14:18:21;3.05;;;0.60;;
84009;SDS011;74073;51.482;4.302;2024-02-21T14:20:47;2.55;;;0.47;;
84009;SDS011;74073;51.482;4.302;2024-02-21T14:23:13;3.40;;;0.40;;
84009;SDS011;74073;51.482;4.302;2024-02-21T14:25:39;5.13;;;0.50;;
84009;SDS011;74073;51.482;4.302;2024-02-21T14:28:07;4.78;;;0.88;;
84009;SDS011;74073;51.482;4.302;2024-02-21T14:30:36;3.45;;;0.63;;
84009;SDS011;74073;51.482;4.302;2024-02-21T14:33:02;2.95;;;0.43;;
84009;SDS011;74073;51.482;4.302;2024-02-21T14:35:28;4.47;;;0.52;;
84009;SDS011;74073;51.482;4.302;2024-02-21T14:37:54;4.75;;;0.82;;
84009;SDS011;74073;51.482;4.302;2024-02-21T14:40:22;5.20;;;0.80;;
84009;SDS011;74073;51.482;4.302;2024-02-21T14:42:48;4.47;;;0.63;;
84009;SDS011;74073;51.482;4.302;2024-02-21T14:45:14;3.78;;;1.02;;
84009;SDS011;74073;51.482;4.302;2024-02-21T14:47:40;4.50;;;0.85;;